デリー の空港の天気 - METARとTAF

インディラ・ガンディー国際空港 ( VIDP / DEL ) - インド デリー
飛行場実況気象(Metar)
観測時間06/18 01:00 IST (06/17 19:30 UTC)
風向・風速北 5m/s 瞬間風速10m/s
視程3000m
天気現象弱い雷雨
全天の4割程度の雲 雲底高度 1070m
少しの雲 雲底高度 1220m
全天の8割程度の雲 雲底高度 3050m
気温25℃
湿度74%
気圧1003hPa
METARVIDP 171930Z 36010G20KT 3000 -TSRA SCT035 FEW040CB BKN100 25/20 Q1003 TEMPO 32015G25KT 1500 TSRA
過去の天気等 Google飛行場航空写真 Wunderground天気予報

過去48時間のMETAR

飛行場予報(TAF)
発表時間: 6/17 22:30 IST (6/17 17:00 UTC)
予報対象時間: 17日23時 IST ~ 19日5時 IST
風向・風速北北東 8m/s 瞬間風速 13m/s
視程3000m
天気現象弱い雷雨
全天の4割程度の雲 雲底高度 1070m
少しの積乱雲 雲底高度 1220m
全天の8割程度の雲 雲底高度 2740m
18日5時 IST ~ 18日7時 IST に徐々に
風向・風速西 5m/s
視程3000m
天気現象煙霧
全天の4割程度の雲 雲底高度 1220m
全天の4割程度の雲 雲底高度 3050m
18日10時 IST ~ 18日12時 IST に徐々に
風向・風速北北西 4m/s 瞬間風速 9m/s
視程5000m
天気現象煙霧
18日15時 IST ~ 18日19時 IST に徐々に
風向・風速西北西 8m/s 瞬間風速 13m/s
視程2000m
天気現象弱い雷雨 高い風塵
全天の4割程度の雲 雲底高度 910m
少しの積乱雲 雲底高度 1220m
全天の8割程度の雲 雲底高度 3050m
19日1時 IST ~ 19日3時 IST に徐々に
風向・風速西南西 3m/s
視程3000m
全天の4割程度の雲 雲底高度 1220m
全天の4割程度の雲 雲底高度 3050m
TAF VIDP 171700Z 1718/1824 02015G25KT 3000 -TSRA SCT035 FEW040CB BKN090
BECMG 1800/1802 27010KT 3000 HZ SCT040 SCT100
BECMG 1805/1807 34008G18KT 5000 HZ
BECMG 1810/1814 29015G25KT 2000 -TSRA BLDU SCT030 FEW040CB BKN100
BECMG 1820/1822 25006KT 3000 SCT040 SCT100